createdAt,value
2022-11-01T00:00:05.337Z,97421.13
2022-11-01T00:03:15.484Z,97435.72
2022-11-01T00:06:18.433Z,97452.81
2022-11-01T00:09:21.369Z,97458.28
2022-11-01T00:12:24.204Z,97451.28
2022-11-01T00:15:28.455Z,97436.94
2022-11-01T00:18:31.361Z,97423.50
2022-11-01T00:21:34.266Z,97411.72
2022-11-01T00:24:37.195Z,97405.91
2022-11-01T00:27:40.140Z,97406.59
2022-11-01T00:30:44.606Z,97395.75
2022-11-01T00:33:47.667Z,97387.44
2022-11-01T00:36:50.667Z,97375.44
2022-11-01T00:39:53.569Z,97368.75
2022-11-01T00:42:56.557Z,97368.00
2022-11-01T00:46:01.583Z,97357.94
2022-11-01T00:49:04.736Z,97346.16
2022-11-01T00:52:07.710Z,97348.94
2022-11-01T00:55:10.900Z,97338.78
2022-11-01T00:58:13.895Z,97328.44
2022-11-01T01:01:18.180Z,97320.81
2022-11-01T01:04:21.258Z,97325.34
2022-11-01T01:07:24.462Z,97329.53
2022-11-01T01:10:27.417Z,97330.25
2022-11-01T01:13:30.432Z,97330.97
2022-11-01T01:16:34.759Z,97339.81
2022-11-01T01:19:37.867Z,97342.88
2022-11-01T01:22:40.889Z,97345.31
2022-11-01T01:25:44.361Z,97339.78
2022-11-01T01:28:47.327Z,97337.78
2022-11-01T01:31:52.812Z,97338.25
2022-11-01T01:34:56.045Z,97336.31
2022-11-01T01:37:59.134Z,97330.47
2022-11-01T01:41:22.296Z,97322.00
2022-11-01T01:45:00.866Z,97325.47
2022-11-01T01:48:13.886Z,97325.66
2022-11-01T01:51:20.860Z,97318.13
2022-11-01T01:54:23.793Z,97320.88
2022-11-01T01:57:27.471Z,97322.31
2022-11-01T02:00:30.435Z,97321.56
2022-11-01T02:03:36.726Z,97324.22
2022-11-01T02:06:40.509Z,97326.63
2022-11-01T02:09:44.347Z,97338.94
2022-11-01T02:12:49.182Z,97338.47
2022-11-01T02:16:05.791Z,97345.47
2022-11-01T02:19:47.112Z,97343.16
2022-11-01T02:23:20.909Z,97338.66
2022-11-01T02:26:54.736Z,97341.53
2022-11-01T02:30:13.000Z,97357.69
2022-11-01T02:33:30.468Z,97366.59
2022-11-01T02:36:39.046Z,97380.66
2022-11-01T02:39:48.058Z,97393.78
2022-11-01T02:42:55.177Z,97416.03
2022-11-01T02:46:19.732Z,97432.13
2022-11-01T02:49:26.187Z,97433.47
2022-11-01T02:52:32.835Z,97466.56
2022-11-01T02:55:36.253Z,97474.50
2022-11-01T02:58:39.328Z,97484.13
2022-11-01T03:01:46.003Z,97498.75
2022-11-01T03:04:50.465Z,97506.44
2022-11-01T03:07:58.299Z,97530.56
2022-11-01T03:11:07.665Z,97533.66
2022-11-01T03:14:21.831Z,97530.03
2022-11-01T03:17:33.513Z,97546.41
2022-11-01T03:20:48.453Z,97553.78
2022-11-01T03:23:54.994Z,97555.59
2022-11-01T03:27:04.054Z,97558.53
2022-11-01T03:30:10.460Z,97568.22
2022-11-01T03:33:16.059Z,97565.25
2022-11-01T03:36:23.412Z,97576.03
2022-11-01T03:39:32.778Z,97591.47
2022-11-01T03:42:38.449Z,97612.28
2022-11-01T03:45:42.589Z,97611.63
2022-11-01T03:48:45.643Z,97611.25
2022-11-01T03:51:50.112Z,97632.44
2022-11-01T03:54:52.958Z,97623.28
2022-11-01T03:57:58.022Z,97609.50
2022-11-01T04:01:01.042Z,97609.38
2022-11-01T04:04:04.299Z,97616.75
2022-11-01T04:07:08.552Z,97616.56
2022-11-01T04:10:12.408Z,97605.66
2022-11-01T04:13:15.333Z,97614.00
2022-11-01T04:16:35.863Z,97629.69
2022-11-01T04:19:56.288Z,97623.69
2022-11-01T04:23:01.423Z,97629.41
2022-11-01T04:26:06.455Z,97630.78
2022-11-01T04:29:09.395Z,97632.31
2022-11-01T04:32:12.316Z,97642.06
2022-11-01T04:35:15.571Z,97641.41
2022-11-01T04:38:19.760Z,97658.59
2022-11-01T04:41:24.226Z,97656.16
2022-11-01T04:44:27.213Z,97660.44
2022-11-01T04:47:30.175Z,97651.25
2022-11-01T04:50:33.785Z,97656.34
2022-11-01T04:53:38.755Z,97651.78
2022-11-01T04:56:41.668Z,97659.84
2022-11-01T04:59:44.569Z,97676.75
2022-11-01T05:02:47.535Z,97714.69
2022-11-01T05:05:50.492Z,97727.16
2022-11-01T05:08:56.868Z,97722.09
2022-11-01T05:11:59.946Z,97729.81
2022-11-01T05:15:02.996Z,97738.34
2022-11-01T05:18:06.501Z,97743.44
2022-11-01T05:21:09.396Z,97757.38
2022-11-01T05:24:13.628Z,97768.56
2022-11-01T05:27:16.537Z,97770.81
2022-11-01T05:30:19.728Z,97784.50
2022-11-01T05:33:22.650Z,97776.63
2022-11-01T05:36:25.604Z,97769.72
2022-11-01T05:39:29.878Z,97785.00
2022-11-01T05:42:32.789Z,97778.28
2022-11-01T05:45:35.779Z,97783.69
2022-11-01T05:48:38.600Z,97785.34
2022-11-01T05:51:41.557Z,97782.69
2022-11-01T05:54:45.917Z,97782.06
2022-11-01T06:00:51.695Z,97782.06
2022-11-01T06:03:54.543Z,97794.22
2022-11-01T06:06:57.587Z,97791.91
2022-11-01T06:10:02.412Z,97803.75
2022-11-01T06:13:05.694Z,97804.41
2022-11-01T06:16:09.546Z,97817.69
2022-11-01T06:19:12.670Z,97822.81
2022-11-01T06:22:15.531Z,97838.91
2022-11-01T06:25:19.764Z,97839.06
2022-11-01T06:28:23.819Z,97844.47
2022-11-01T06:31:26.785Z,97837.91
2022-11-01T06:34:29.757Z,97839.22
2022-11-01T06:37:32.769Z,97839.22
2022-11-01T06:40:37.725Z,97844.13
2022-11-01T06:43:40.584Z,97843.66
2022-11-01T06:46:43.506Z,97860.59
2022-11-01T06:49:46.442Z,97869.97
2022-11-01T06:52:49.371Z,97862.56
2022-11-01T06:55:53.780Z,97863.88
2022-11-01T06:58:56.653Z,97861.22
2022-11-01T07:01:59.731Z,97857.94
2022-11-01T07:05:03.093Z,97876.03
2022-11-01T07:08:07.292Z,97880.31
2022-11-01T07:11:11.612Z,97893.31
2022-11-01T07:14:14.709Z,97900.97
2022-11-01T07:17:17.601Z,97908.50
2022-11-01T07:20:20.499Z,97916.31
2022-11-01T07:23:23.717Z,97921.91
2022-11-01T07:26:27.963Z,97940.63
2022-11-01T07:29:30.837Z,97950.03
2022-11-01T07:32:37.620Z,97962.00
2022-11-01T07:35:42.803Z,97964.25
2022-11-01T07:38:45.662Z,97985.56
2022-11-01T07:41:51.333Z,97999.31
2022-11-01T07:44:54.254Z,98000.53
2022-11-01T07:48:00.142Z,98001.00
2022-11-01T07:51:05.707Z,97999.59
2022-11-01T07:54:08.676Z,97976.00
2022-11-01T07:57:12.893Z,97955.50
2022-11-01T08:00:16.921Z,97923.41
2022-11-01T08:03:20.658Z,97910.41
2022-11-01T08:06:23.631Z,97884.19
2022-11-01T08:09:26.659Z,97851.75
2022-11-01T08:12:30.870Z,97818.03
2022-11-01T08:15:34.662Z,97784.78
2022-11-01T08:18:37.523Z,97763.50
2022-11-01T08:21:40.372Z,97760.34
2022-11-01T08:24:43.232Z,97744.47
2022-11-01T08:27:47.777Z,97719.50
2022-11-01T08:30:51.491Z,97706.91
2022-11-01T08:33:55.412Z,97695.91
2022-11-01T08:36:58.964Z,97709.28
2022-11-01T08:40:02.201Z,97729.69
2022-11-01T08:43:06.769Z,97721.13
2022-11-01T08:46:10.681Z,97708.91
2022-11-01T08:49:14.325Z,97719.97
2022-11-01T08:52:17.295Z,97720.06
2022-11-01T08:55:20.209Z,97688.34
2022-11-01T08:58:25.007Z,97685.97
2022-11-01T09:01:28.013Z,97683.16
2022-11-01T09:04:31.021Z,97664.81
2022-11-01T09:07:34.958Z,97665.66
2022-11-01T09:10:37.904Z,97656.38
2022-11-01T09:13:42.210Z,97648.41
2022-11-01T09:16:45.381Z,97657.19
2022-11-01T09:19:48.232Z,97655.56
2022-11-01T09:22:52.565Z,97664.38
2022-11-01T09:26:02.834Z,97677.66
2022-11-01T09:29:07.373Z,97641.19
2022-11-01T09:32:10.341Z,97628.59
2022-11-01T09:35:13.442Z,97623.91
2022-11-01T09:38:16.450Z,97614.97
2022-11-01T09:41:31.207Z,97593.75
2022-11-01T09:44:40.472Z,97589.25
2022-11-01T09:47:46.194Z,97590.06
2022-11-01T09:50:49.217Z,97582.94
2022-11-01T09:53:55.120Z,97574.75
2022-11-01T09:57:17.538Z,97568.03
2022-11-01T10:00:22.841Z,97564.16
2022-11-01T10:03:41.396Z,97559.47
2022-11-01T10:06:51.597Z,97551.69
2022-11-01T10:10:06.223Z,97546.81
2022-11-01T10:13:23.703Z,97549.25
2022-11-01T10:16:37.108Z,97557.19
2022-11-01T10:19:41.654Z,97557.00
2022-11-01T10:22:48.977Z,97557.25
2022-11-01T10:25:54.899Z,97536.16
2022-11-01T10:29:03.765Z,97512.66
2022-11-01T10:32:21.053Z,97499.75
2022-11-01T10:35:29.962Z,97491.19
2022-11-01T10:39:10.400Z,97488.69
2022-11-01T10:42:08.960Z,97474.91
2022-11-01T10:45:16.531Z,97475.88
2022-11-01T10:48:30.524Z,97466.09
2022-11-01T10:51:35.759Z,97466.44
2022-11-01T10:54:41.699Z,97469.50
2022-11-01T10:57:50.838Z,97484.00
2022-11-01T11:00:54.364Z,97480.38
2022-11-01T11:04:02.454Z,97484.22
2022-11-01T11:07:13.609Z,97477.06
2022-11-01T11:10:23.947Z,97473.28
2022-11-01T11:13:28.626Z,97476.22
2022-11-01T11:16:35.302Z,97485.81
2022-11-01T11:19:43.007Z,97488.09
2022-11-01T11:22:46.142Z,97472.25
2022-11-01T11:25:50.557Z,97479.09
2022-11-01T11:28:56.930Z,97476.22
2022-11-01T11:32:01.333Z,97479.84
2022-11-01T11:35:16.360Z,97480.66
2022-11-01T11:38:19.328Z,97471.84
2022-11-01T11:41:30.737Z,97477.81
2022-11-01T11:44:42.891Z,97472.50
2022-11-01T11:47:46.996Z,97479.78
2022-11-01T11:51:02.055Z,97489.22
2022-11-01T11:54:24.270Z,97485.53
2022-11-01T11:57:30.296Z,97479.38
2022-11-01T12:00:39.268Z,97482.16
2022-11-01T12:03:48.346Z,97486.28
2022-11-01T12:06:52.793Z,97485.41
2022-11-01T12:09:57.271Z,97485.91
2022-11-01T12:13:01.118Z,97489.81
2022-11-01T12:16:10.665Z,97486.13
2022-11-01T12:19:25.743Z,97491.66
2022-11-01T12:22:34.435Z,97488.00
2022-11-01T12:25:39.226Z,97498.59
2022-11-01T12:28:45.806Z,97511.72
2022-11-01T12:31:50.387Z,97512.75
2022-11-01T12:34:55.221Z,97518.28
2022-11-01T12:38:26.729Z,97527.28
2022-11-01T12:41:35.957Z,97524.44
2022-11-01T12:44:43.306Z,97522.16
2022-11-01T12:47:51.532Z,97531.16
2022-11-01T12:50:59.490Z,97531.16
2022-11-01T12:54:13.896Z,97525.69
2022-11-01T12:57:18.615Z,97530.34
2022-11-01T13:00:22.704Z,97529.75
2022-11-01T13:03:35.677Z,97534.06
2022-11-01T13:07:03.865Z,97542.66
2022-11-01T13:10:16.273Z,97542.47
2022-11-01T13:13:27.455Z,97541.63
2022-11-01T13:16:36.725Z,97538.78
2022-11-01T13:19:46.569Z,97534.69
2022-11-01T13:22:57.837Z,97532.25
2022-11-01T13:26:08.608Z,97536.28
2022-11-01T13:29:18.550Z,97544.22
2022-11-01T13:32:28.455Z,97532.56
2022-11-01T13:35:49.167Z,97534.19
2022-11-01T13:38:59.621Z,97542.19
2022-11-01T13:42:10.354Z,97538.69
2022-11-01T13:45:36.110Z,97542.22
2022-11-01T13:49:02.620Z,97549.56
2022-11-01T13:52:13.615Z,97562.31
2022-11-01T13:55:22.066Z,97551.84
2022-11-01T13:58:27.425Z,97555.09
2022-11-01T14:01:35.527Z,97548.53
2022-11-01T14:04:39.489Z,97558.78
2022-11-01T14:08:14.720Z,97555.97
2022-11-01T14:11:46.020Z,97548.59
2022-11-01T14:14:54.204Z,97547.59
2022-11-01T14:18:12.616Z,97538.38
2022-11-01T14:21:29.008Z,97542.50
2022-11-01T14:24:35.175Z,97545.72
2022-11-01T14:27:40.611Z,97545.69
2022-11-01T14:30:46.660Z,97547.03
2022-11-01T14:33:49.700Z,97545.19
2022-11-01T14:36:55.179Z,97544.00
2022-11-01T14:40:27.190Z,97553.38
2022-11-01T14:43:34.553Z,97563.41
2022-11-01T14:46:46.215Z,97555.09
2022-11-01T14:49:51.348Z,97552.25
2022-11-01T14:53:00.719Z,97555.31
2022-11-01T14:56:13.947Z,97550.47
2022-11-01T14:59:22.094Z,97547.00
2022-11-01T15:02:29.363Z,97545.19
2022-11-01T15:05:32.319Z,97541.19
2022-11-01T15:08:41.422Z,97545.91
2022-11-01T15:11:44.429Z,97556.75
2022-11-01T15:14:48.591Z,97553.72
2022-11-01T15:17:56.452Z,97555.31
2022-11-01T15:21:01.778Z,97550.84
2022-11-01T15:24:05.107Z,97554.13
2022-11-01T15:27:14.197Z,97559.28
2022-11-01T15:30:22.536Z,97563.34
2022-11-01T15:33:30.845Z,97564.59
2022-11-01T15:36:36.942Z,97565.19
2022-11-01T15:39:39.909Z,97558.63
2022-11-01T15:42:49.029Z,97559.47
2022-11-01T15:45:54.892Z,97555.97
2022-11-01T15:49:05.679Z,97557.22
2022-11-01T15:52:17.708Z,97563.34
2022-11-01T15:55:28.756Z,97570.47
2022-11-01T15:58:36.338Z,97567.22
2022-11-01T16:01:39.655Z,97578.25
2022-11-01T16:04:47.056Z,97570.47
2022-11-01T16:07:50.856Z,97576.63
2022-11-01T16:11:03.832Z,97587.22
2022-11-01T16:14:09.221Z,97590.88
2022-11-01T16:17:25.057Z,97586.34
2022-11-01T16:20:34.016Z,97590.03
2022-11-01T16:23:37.842Z,97585.13
2022-11-01T16:26:54.546Z,97592.06
2022-11-01T16:29:58.142Z,97596.94
2022-11-01T16:33:09.282Z,97609.19
2022-11-01T16:36:37.023Z,97613.44
2022-11-01T16:39:42.058Z,97621.66
2022-11-01T16:42:45.009Z,97619.47
2022-11-01T16:45:47.993Z,97617.00
2022-11-01T16:48:54.518Z,97618.78
2022-11-01T16:51:59.482Z,97626.94
2022-11-01T16:55:02.459Z,97631.44
2022-11-01T16:58:05.870Z,97637.38
2022-11-01T17:01:19.944Z,97633.31
2022-11-01T17:04:24.023Z,97633.78
2022-11-01T17:07:29.916Z,97636.53
2022-11-01T17:10:34.930Z,97638.66
2022-11-01T17:13:38.092Z,97637.88
2022-11-01T17:16:43.447Z,97631.53
2022-11-01T17:19:50.252Z,97644.38
2022-11-01T17:22:56.390Z,97647.44
2022-11-01T17:25:59.673Z,97655.53
2022-11-01T17:29:02.632Z,97664.28
2022-11-01T17:32:09.722Z,97669.59
2022-11-01T17:35:12.841Z,97670.94
2022-11-01T17:38:20.722Z,97665.69
2022-11-01T17:41:23.622Z,97665.66
2022-11-01T17:44:27.001Z,97666.72
2022-11-01T17:47:29.929Z,97666.94
2022-11-01T17:50:33.550Z,97671.78
2022-11-01T17:53:39.454Z,97675.41
2022-11-01T17:56:42.628Z,97673.34
2022-11-01T17:59:45.569Z,97681.63
2022-11-01T18:02:49.024Z,97672.78
2022-11-01T18:05:52.092Z,97683.72
2022-11-01T18:08:56.353Z,97684.50
2022-11-01T18:12:04.728Z,97684.50
2022-11-01T18:15:20.419Z,97683.38
2022-11-01T18:18:33.105Z,97687.16
2022-11-01T18:21:45.878Z,97685.88
2022-11-01T18:24:53.474Z,97697.84
2022-11-01T18:28:01.938Z,97702.72
2022-11-01T18:31:14.105Z,97691.03
2022-11-01T18:34:30.052Z,97692.84
2022-11-01T18:37:41.647Z,97695.81
2022-11-01T18:40:55.608Z,97698.47
2022-11-01T18:43:58.685Z,97706.13
2022-11-01T18:47:08.689Z,97705.66
2022-11-01T18:50:21.014Z,97702.72
2022-11-01T18:53:25.173Z,97699.88
2022-11-01T18:56:30.718Z,97707.34
2022-11-01T18:59:36.767Z,97710.38
2022-11-01T19:02:41.004Z,97713.03
2022-11-01T19:05:44.489Z,97718.00
2022-11-01T19:08:52.896Z,97713.88
2022-11-01T19:12:01.247Z,97710.22
2022-11-01T19:15:08.945Z,97711.28
2022-11-01T19:18:18.764Z,97722.09
2022-11-01T19:21:23.680Z,97721.28
2022-11-01T19:24:35.669Z,97712.06
2022-11-01T19:27:56.497Z,97721.00
2022-11-01T19:31:07.987Z,97722.84
2022-11-01T19:34:21.092Z,97720.81
2022-11-01T19:37:34.660Z,97711.75
2022-11-01T19:40:41.503Z,97709.72
2022-11-01T19:43:47.668Z,97715.72
2022-11-01T19:46:52.349Z,97719.38
2022-11-01T19:49:58.636Z,97717.00
2022-11-01T19:53:01.670Z,97712.72
2022-11-01T19:56:06.425Z,97724.53
2022-11-01T19:59:19.577Z,97727.00
2022-11-01T20:02:23.965Z,97725.16
2022-11-01T20:05:29.590Z,97728.44
2022-11-01T20:08:34.436Z,97727.94
2022-11-01T20:11:40.688Z,97732.63
2022-11-01T20:14:50.311Z,97740.03
2022-11-01T20:17:53.271Z,97740.22
2022-11-01T20:20:56.606Z,97735.19
2022-11-01T20:24:00.037Z,97737.06
2022-11-01T20:27:05.152Z,97747.88
2022-11-01T20:30:11.650Z,97743.56
2022-11-01T20:33:16.136Z,97746.38
2022-11-01T20:36:19.002Z,97738.06
2022-11-01T20:39:25.039Z,97744.03
2022-11-01T20:42:28.207Z,97743.28
2022-11-01T20:45:34.468Z,97739.13
2022-11-01T20:48:38.112Z,97738.94
2022-11-01T20:51:41.548Z,97741.44
2022-11-01T20:54:44.403Z,97736.63
2022-11-01T20:57:47.393Z,97745.34
2022-11-01T21:00:52.121Z,97738.28
2022-11-01T21:03:55.873Z,97744.19
2022-11-01T21:07:03.674Z,97749.09
2022-11-01T21:10:28.267Z,97754.38
2022-11-01T21:13:33.156Z,97754.09
2022-11-01T21:16:39.590Z,97754.31
2022-11-01T21:19:42.479Z,97759.84
2022-11-01T21:22:45.367Z,97757.22
2022-11-01T21:25:53.405Z,97765.66
2022-11-01T21:29:03.705Z,97767.72
2022-11-01T21:32:29.556Z,97778.00
2022-11-01T21:35:40.795Z,97810.00
2022-11-01T21:38:43.998Z,97818.88
2022-11-01T21:41:48.977Z,97838.03
2022-11-01T21:44:52.210Z,97846.09
2022-11-01T21:48:02.082Z,97848.63
2022-11-01T21:51:05.376Z,97842.41
2022-11-01T21:54:08.513Z,97855.50
2022-11-01T21:57:12.305Z,97862.47
2022-11-01T22:00:16.426Z,97860.47
2022-11-01T22:03:20.699Z,97857.50
2022-11-01T22:06:23.577Z,97858.47
2022-11-01T22:09:26.475Z,97857.63
2022-11-01T22:12:29.459Z,97856.50
2022-11-01T22:15:32.446Z,97858.13
2022-11-01T22:18:36.776Z,97855.19
2022-11-01T22:21:39.634Z,97848.78
2022-11-01T22:24:42.669Z,97845.59
2022-11-01T22:27:45.690Z,97839.22
2022-11-01T22:30:48.681Z,97841.03
2022-11-01T22:33:54.275Z,97836.13
2022-11-01T22:36:57.813Z,97825.63
2022-11-01T22:40:00.685Z,97822.16
2022-11-01T22:43:11.550Z,97822.97
2022-11-01T22:46:21.190Z,97816.72
2022-11-01T22:49:29.853Z,97813.31
2022-11-01T22:52:37.916Z,97806.22
2022-11-01T22:55:43.909Z,97805.91
2022-11-01T22:58:47.237Z,97802.94
2022-11-01T23:01:57.687Z,97804.91
2022-11-01T23:05:21.347Z,97797.38
2022-11-01T23:08:27.523Z,97792.13
2022-11-01T23:11:48.297Z,97802.03
2022-11-01T23:14:51.321Z,97799.19
2022-11-01T23:17:54.596Z,97794.63
2022-11-01T23:21:02.004Z,97803.03
2022-11-01T23:24:05.241Z,97800.06
2022-11-01T23:27:08.246Z,97804.00
2022-11-01T23:30:12.207Z,97805.31
2022-11-01T23:33:17.117Z,97807.78
2022-11-01T23:36:24.316Z,97805.97
2022-11-01T23:39:34.056Z,97801.41
2022-11-01T23:42:37.691Z,97808.97
2022-11-01T23:45:40.900Z,97809.13
2022-11-01T23:48:44.619Z,97810.59
2022-11-01T23:51:49.204Z,97819.50
2022-11-01T23:54:52.163Z,97808.16
2022-11-01T23:57:56.978Z,97812.78
